sensor_id;sensor_type;location;lat;lon;timestamp;P1;durP1;ratioP1;P2;durP2;ratioP2
75885;SDS011;64561;44.018;10.144;2024-01-11T00:00:40;28.52;;;19.30;;
75885;SDS011;64561;44.018;10.144;2024-01-11T00:03:08;35.83;;;20.13;;
75885;SDS011;64561;44.018;10.144;2024-01-11T00:05:35;34.45;;;22.83;;
75885;SDS011;64561;44.018;10.144;2024-01-11T00:12:11;34.38;;;21.25;;
75885;SDS011;64561;44.018;10.144;2024-01-11T00:15:35;34.83;;;22.70;;
75885;SDS011;64561;44.018;10.144;2024-01-11T00:19:17;36.40;;;21.02;;
75885;SDS011;64561;44.018;10.144;2024-01-11T00:22:31;36.35;;;23.45;;
75885;SDS011;64561;44.018;10.144;2024-01-11T00:25:29;37.83;;;23.63;;
75885;SDS011;64561;44.018;10.144;2024-01-11T00:28:52;33.80;;;21.02;;
75885;SDS011;64561;44.018;10.144;2024-01-11T00:32:13;29.83;;;19.75;;
75885;SDS011;64561;44.018;10.144;2024-01-11T00:35:12;31.15;;;18.65;;
75885;SDS011;64561;44.018;10.144;2024-01-11T00:37:58;32.35;;;20.60;;
75885;SDS011;64561;44.018;10.144;2024-01-11T00:41:11;27.73;;;18.13;;
75885;SDS011;64561;44.018;10.144;2024-01-11T00:44:12;30.70;;;18.20;;
75885;SDS011;64561;44.018;10.144;2024-01-11T00:50:44;24.40;;;15.95;;
75885;SDS011;64561;44.018;10.144;2024-01-11T00:53:14;26.42;;;16.23;;
75885;SDS011;64561;44.018;10.144;2024-01-11T00:56:27;25.25;;;15.52;;
75885;SDS011;64561;44.018;10.144;2024-01-11T00:59:47;19.77;;;15.00;;
75885;SDS011;64561;44.018;10.144;2024-01-11T01:02:43;22.63;;;15.82;;
75885;SDS011;64561;44.018;10.144;2024-01-11T01:05:29;25.33;;;15.60;;
75885;SDS011;64561;44.018;10.144;2024-01-11T01:08:20;27.27;;;14.65;;
75885;SDS011;64561;44.018;10.144;2024-01-11T01:11:15;19.48;;;13.10;;
75885;SDS011;64561;44.018;10.144;2024-01-11T01:13:53;18.38;;;12.18;;
75885;SDS011;64561;44.018;10.144;2024-01-11T01:16:56;17.77;;;12.27;;
75885;SDS011;64561;44.018;10.144;2024-01-11T01:23:01;16.95;;;9.95;;
75885;SDS011;64561;44.018;10.144;2024-01-11T01:26:23;20.35;;;12.45;;
75885;SDS011;64561;44.018;10.144;2024-01-11T01:32:21;16.90;;;10.45;;
75885;SDS011;64561;44.018;10.144;2024-01-11T01:35:33;19.75;;;11.32;;
75885;SDS011;64561;44.018;10.144;2024-01-11T01:38:41;15.07;;;10.10;;
75885;SDS011;64561;44.018;10.144;2024-01-11T01:41:21;14.40;;;9.38;;
75885;SDS011;64561;44.018;10.144;2024-01-11T01:44:02;13.27;;;9.55;;
75885;SDS011;64561;44.018;10.144;2024-01-11T01:50:20;14.85;;;9.07;;
75885;SDS011;64561;44.018;10.144;2024-01-11T01:53:04;16.88;;;9.80;;
75885;SDS011;64561;44.018;10.144;2024-01-11T01:59:20;16.30;;;10.48;;
75885;SDS011;64561;44.018;10.144;2024-01-11T02:02:01;17.70;;;10.27;;
75885;SDS011;64561;44.018;10.144;2024-01-11T02:04:50;17.67;;;10.18;;
75885;SDS011;64561;44.018;10.144;2024-01-11T02:07:38;15.77;;;9.95;;
75885;SDS011;64561;44.018;10.144;2024-01-11T02:10:46;15.88;;;10.27;;
75885;SDS011;64561;44.018;10.144;2024-01-11T02:13:33;15.75;;;9.80;;
75885;SDS011;64561;44.018;10.144;2024-01-11T02:16:55;14.45;;;9.55;;
75885;SDS011;64561;44.018;10.144;2024-01-11T02:20:06;15.63;;;11.13;;
75885;SDS011;64561;44.018;10.144;2024-01-11T02:23:30;19.25;;;11.77;;
75885;SDS011;64561;44.018;10.144;2024-01-11T02:27:06;15.88;;;10.45;;
75885;SDS011;64561;44.018;10.144;2024-01-11T02:29:41;16.85;;;10.38;;
75885;SDS011;64561;44.018;10.144;2024-01-11T02:33:07;16.15;;;9.00;;
75885;SDS011;64561;44.018;10.144;2024-01-11T02:35:55;12.82;;;8.35;;
75885;SDS011;64561;44.018;10.144;2024-01-11T02:38:36;16.90;;;9.23;;
75885;SDS011;64561;44.018;10.144;2024-01-11T02:41:27;15.73;;;7.55;;
75885;SDS011;64561;44.018;10.144;2024-01-11T02:44:23;11.02;;;7.35;;
75885;SDS011;64561;44.018;10.144;2024-01-11T02:47:17;11.93;;;6.53;;
75885;SDS011;64561;44.018;10.144;2024-01-11T02:50:13;14.15;;;7.85;;
75885;SDS011;64561;44.018;10.144;2024-01-11T02:53:14;13.45;;;6.22;;
75885;SDS011;64561;44.018;10.144;2024-01-11T02:56:14;10.10;;;6.72;;
75885;SDS011;64561;44.018;10.144;2024-01-11T02:58:48;10.48;;;6.22;;
75885;SDS011;64561;44.018;10.144;2024-01-11T03:01:56;9.45;;;6.05;;
75885;SDS011;64561;44.018;10.144;2024-01-11T03:04:45;9.32;;;5.55;;
75885;SDS011;64561;44.018;10.144;2024-01-11T03:10:34;9.82;;;5.35;;
75885;SDS011;64561;44.018;10.144;2024-01-11T03:13:22;9.30;;;5.80;;
75885;SDS011;64561;44.018;10.144;2024-01-11T03:15:59;6.65;;;5.03;;
75885;SDS011;64561;44.018;10.144;2024-01-11T03:19:10;10.98;;;5.57;;
75885;SDS011;64561;44.018;10.144;2024-01-11T03:22:00;8.43;;;5.35;;
75885;SDS011;64561;44.018;10.144;2024-01-11T03:28:56;9.52;;;6.43;;
75885;SDS011;64561;44.018;10.144;2024-01-11T03:32:02;9.18;;;5.45;;
75885;SDS011;64561;44.018;10.144;2024-01-11T03:38:26;7.18;;;4.55;;
75885;SDS011;64561;44.018;10.144;2024-01-11T03:41:01;8.27;;;5.28;;
75885;SDS011;64561;44.018;10.144;2024-01-11T03:43:41;8.93;;;6.03;;
75885;SDS011;64561;44.018;10.144;2024-01-11T03:53:07;9.98;;;5.80;;
75885;SDS011;64561;44.018;10.144;2024-01-11T03:55:55;13.18;;;6.05;;
75885;SDS011;64561;44.018;10.144;2024-01-11T03:58:57;11.13;;;6.32;;
75885;SDS011;64561;44.018;10.144;2024-01-11T04:02:19;10.88;;;6.07;;
75885;SDS011;64561;44.018;10.144;2024-01-11T04:08:39;14.95;;;8.18;;
75885;SDS011;64561;44.018;10.144;2024-01-11T04:11:43;13.88;;;9.20;;
75885;SDS011;64561;44.018;10.144;2024-01-11T04:14:44;16.15;;;8.65;;
75885;SDS011;64561;44.018;10.144;2024-01-11T04:17:49;15.60;;;7.13;;
75885;SDS011;64561;44.018;10.144;2024-01-11T04:20:51;10.13;;;6.38;;
75885;SDS011;64561;44.018;10.144;2024-01-11T04:23:43;13.40;;;6.95;;
75885;SDS011;64561;44.018;10.144;2024-01-11T04:26:59;11.68;;;6.38;;
75885;SDS011;64561;44.018;10.144;2024-01-11T04:29:37;11.65;;;6.80;;
75885;SDS011;64561;44.018;10.144;2024-01-11T04:32:46;12.65;;;7.00;;
75885;SDS011;64561;44.018;10.144;2024-01-11T04:35:46;11.68;;;7.20;;
75885;SDS011;64561;44.018;10.144;2024-01-11T04:38:39;13.38;;;6.55;;
75885;SDS011;64561;44.018;10.144;2024-01-11T04:41:45;10.82;;;6.35;;
75885;SDS011;64561;44.018;10.144;2024-01-11T04:47:55;14.63;;;7.10;;
75885;SDS011;64561;44.018;10.144;2024-01-11T04:50:47;9.52;;;5.95;;
75885;SDS011;64561;44.018;10.144;2024-01-11T04:53:43;10.82;;;6.28;;
75885;SDS011;64561;44.018;10.144;2024-01-11T04:57:05;8.60;;;5.40;;
75885;SDS011;64561;44.018;10.144;2024-01-11T05:00:03;10.02;;;6.10;;
75885;SDS011;64561;44.018;10.144;2024-01-11T05:02:50;8.18;;;5.07;;
75885;SDS011;64561;44.018;10.144;2024-01-11T05:05:50;7.00;;;4.82;;
75885;SDS011;64561;44.018;10.144;2024-01-11T05:08:21;10.57;;;5.88;;
75885;SDS011;64561;44.018;10.144;2024-01-11T05:11:17;9.00;;;5.07;;
75885;SDS011;64561;44.018;10.144;2024-01-11T05:13:58;9.25;;;4.93;;
75885;SDS011;64561;44.018;10.144;2024-01-11T05:16:42;8.57;;;5.20;;
75885;SDS011;64561;44.018;10.144;2024-01-11T05:19:45;7.88;;;5.32;;
75885;SDS011;64561;44.018;10.144;2024-01-11T05:25:49;8.40;;;4.78;;
75885;SDS011;64561;44.018;10.144;2024-01-11T05:28:34;9.20;;;5.28;;
75885;SDS011;64561;44.018;10.144;2024-01-11T05:31:14;9.70;;;4.72;;
75885;SDS011;64561;44.018;10.144;2024-01-11T05:34:10;7.53;;;5.13;;
75885;SDS011;64561;44.018;10.144;2024-01-11T05:37:47;11.00;;;5.22;;
75885;SDS011;64561;44.018;10.144;2024-01-11T05:40:21;12.02;;;6.00;;
75885;SDS011;64561;44.018;10.144;2024-01-11T05:42:58;8.95;;;5.32;;
75885;SDS011;64561;44.018;10.144;2024-01-11T05:45:51;9.73;;;5.70;;
75885;SDS011;64561;44.018;10.144;2024-01-11T05:51:39;12.55;;;5.05;;
75885;SDS011;64561;44.018;10.144;2024-01-11T05:54:29;9.65;;;5.82;;
75885;SDS011;64561;44.018;10.144;2024-01-11T06:00:22;9.60;;;5.88;;
75885;SDS011;64561;44.018;10.144;2024-01-11T06:06:25;11.40;;;5.20;;
75885;SDS011;64561;44.018;10.144;2024-01-11T06:09:39;9.35;;;4.63;;
75885;SDS011;64561;44.018;10.144;2024-01-11T06:12:29;8.05;;;5.07;;
75885;SDS011;64561;44.018;10.144;2024-01-11T06:18:32;13.00;;;6.40;;
75885;SDS011;64561;44.018;10.144;2024-01-11T06:21:35;12.77;;;6.43;;
75885;SDS011;64561;44.018;10.144;2024-01-11T06:24:51;13.57;;;6.55;;
75885;SDS011;64561;44.018;10.144;2024-01-11T06:27:26;10.38;;;5.85;;
75885;SDS011;64561;44.018;10.144;2024-01-11T06:40:34;13.48;;;6.13;;
75885;SDS011;64561;44.018;10.144;2024-01-11T06:43:07;12.15;;;6.10;;
75885;SDS011;64561;44.018;10.144;2024-01-11T06:45:52;11.52;;;6.47;;
75885;SDS011;64561;44.018;10.144;2024-01-11T06:48:48;10.18;;;5.82;;
75885;SDS011;64561;44.018;10.144;2024-01-11T06:51:49;10.93;;;6.32;;
75885;SDS011;64561;44.018;10.144;2024-01-11T06:54:43;12.65;;;7.20;;
75885;SDS011;64561;44.018;10.144;2024-01-11T06:57:35;13.93;;;7.25;;
75885;SDS011;64561;44.018;10.144;2024-01-11T07:00:24;9.35;;;6.70;;
75885;SDS011;64561;44.018;10.144;2024-01-11T07:04:05;11.88;;;6.55;;
75885;SDS011;64561;44.018;10.144;2024-01-11T07:06:49;11.20;;;6.93;;
75885;SDS011;64561;44.018;10.144;2024-01-11T07:09:56;12.43;;;7.20;;
75885;SDS011;64561;44.018;10.144;2024-01-11T07:13:22;13.35;;;7.50;;
75885;SDS011;64561;44.018;10.144;2024-01-11T07:16:19;12.68;;;7.65;;
75885;SDS011;64561;44.018;10.144;2024-01-11T07:19:22;14.57;;;8.30;;
75885;SDS011;64561;44.018;10.144;2024-01-11T07:22:02;14.43;;;8.10;;
75885;SDS011;64561;44.018;10.144;2024-01-11T07:25:09;12.88;;;8.73;;
75885;SDS011;64561;44.018;10.144;2024-01-11T07:27:54;15.20;;;8.77;;
75885;SDS011;64561;44.018;10.144;2024-01-11T07:30:54;17.17;;;9.50;;
75885;SDS011;64561;44.018;10.144;2024-01-11T07:34:04;12.77;;;8.07;;
75885;SDS011;64561;44.018;10.144;2024-01-11T07:36:47;12.60;;;8.20;;
75885;SDS011;64561;44.018;10.144;2024-01-11T07:39:58;14.90;;;7.85;;
75885;SDS011;64561;44.018;10.144;2024-01-11T07:42:51;14.93;;;8.50;;
75885;SDS011;64561;44.018;10.144;2024-01-11T07:45:58;15.73;;;9.50;;
75885;SDS011;64561;44.018;10.144;2024-01-11T07:48:50;17.67;;;9.10;;
75885;SDS011;64561;44.018;10.144;2024-01-11T07:51:47;12.95;;;8.32;;
75885;SDS011;64561;44.018;10.144;2024-01-11T07:54:36;13.98;;;7.97;;
75885;SDS011;64561;44.018;10.144;2024-01-11T08:01:00;13.45;;;8.07;;
75885;SDS011;64561;44.018;10.144;2024-01-11T08:04:19;13.98;;;8.38;;
75885;SDS011;64561;44.018;10.144;2024-01-11T08:06:54;16.73;;;9.95;;
75885;SDS011;64561;44.018;10.144;2024-01-11T08:09:34;16.90;;;10.80;;
75885;SDS011;64561;44.018;10.144;2024-01-11T08:12:48;22.27;;;11.20;;
75885;SDS011;64561;44.018;10.144;2024-01-11T08:16:16;19.88;;;12.05;;
75885;SDS011;64561;44.018;10.144;2024-01-11T08:19:28;19.63;;;11.75;;
75885;SDS011;64561;44.018;10.144;2024-01-11T08:22:46;17.20;;;10.75;;
75885;SDS011;64561;44.018;10.144;2024-01-11T08:25:36;17.23;;;11.18;;
75885;SDS011;64561;44.018;10.144;2024-01-11T08:28:24;15.48;;;9.57;;
75885;SDS011;64561;44.018;10.144;2024-01-11T08:31:23;16.83;;;11.95;;
75885;SDS011;64561;44.018;10.144;2024-01-11T08:34:03;19.83;;;12.20;;
75885;SDS011;64561;44.018;10.144;2024-01-11T08:37:13;15.60;;;10.73;;
75885;SDS011;64561;44.018;10.144;2024-01-11T08:39:53;14.38;;;10.35;;
75885;SDS011;64561;44.018;10.144;2024-01-11T08:42:49;11.07;;;7.63;;
75885;SDS011;64561;44.018;10.144;2024-01-11T08:45:41;9.98;;;7.13;;
75885;SDS011;64561;44.018;10.144;2024-01-11T08:48:41;11.50;;;7.03;;
75885;SDS011;64561;44.018;10.144;2024-01-11T08:51:16;14.90;;;8.80;;
75885;SDS011;64561;44.018;10.144;2024-01-11T08:54:23;10.57;;;7.38;;
75885;SDS011;64561;44.018;10.144;2024-01-11T08:57:11;12.68;;;8.98;;
75885;SDS011;64561;44.018;10.144;2024-01-11T09:00:01;11.45;;;7.32;;
75885;SDS011;64561;44.018;10.144;2024-01-11T09:02:59;15.35;;;8.43;;
75885;SDS011;64561;44.018;10.144;2024-01-11T09:09:32;33.97;;;19.02;;
75885;SDS011;64561;44.018;10.144;2024-01-11T09:12:13;19.92;;;13.43;;
75885;SDS011;64561;44.018;10.144;2024-01-11T09:14:40;15.13;;;8.85;;
75885;SDS011;64561;44.018;10.144;2024-01-11T09:17:07;14.55;;;8.73;;
75885;SDS011;64561;44.018;10.144;2024-01-11T09:19:35;12.35;;;7.68;;
75885;SDS011;64561;44.018;10.144;2024-01-11T09:22:04;12.52;;;7.05;;
75885;SDS011;64561;44.018;10.144;2024-01-11T09:24:32;11.68;;;6.85;;
75885;SDS011;64561;44.018;10.144;2024-01-11T09:27:04;12.02;;;7.30;;
75885;SDS011;64561;44.018;10.144;2024-01-11T09:29:31;10.80;;;5.95;;
75885;SDS011;64561;44.018;10.144;2024-01-11T09:31:58;9.95;;;5.43;;
75885;SDS011;64561;44.018;10.144;2024-01-11T09:34:26;9.13;;;5.78;;
75885;SDS011;64561;44.018;10.144;2024-01-11T09:36:54;10.02;;;5.93;;
75885;SDS011;64561;44.018;10.144;2024-01-11T09:39:25;10.48;;;5.68;;
75885;SDS011;64561;44.018;10.144;2024-01-11T09:41:57;9.40;;;6.07;;
75885;SDS011;64561;44.018;10.144;2024-01-11T09:44:28;10.05;;;5.55;;
75885;SDS011;64561;44.018;10.144;2024-01-11T09:46:56;18.95;;;14.55;;
75885;SDS011;64561;44.018;10.144;2024-01-11T09:49:27;11.30;;;7.45;;
75885;SDS011;64561;44.018;10.144;2024-01-11T09:51:56;15.82;;;8.70;;
75885;SDS011;64561;44.018;10.144;2024-01-11T09:54:25;11.13;;;6.88;;
75885;SDS011;64561;44.018;10.144;2024-01-11T09:56:53;11.15;;;7.03;;
75885;SDS011;64561;44.018;10.144;2024-01-11T09:59:21;11.10;;;6.22;;
75885;SDS011;64561;44.018;10.144;2024-01-11T10:01:51;10.32;;;6.47;;
75885;SDS011;64561;44.018;10.144;2024-01-11T10:04:18;8.90;;;6.47;;
75885;SDS011;64561;44.018;10.144;2024-01-11T10:06:45;11.35;;;5.93;;
75885;SDS011;64561;44.018;10.144;2024-01-11T10:09:14;9.38;;;5.68;;
75885;SDS011;64561;44.018;10.144;2024-01-11T10:11:42;10.10;;;6.40;;
75885;SDS011;64561;44.018;10.144;2024-01-11T10:14:10;9.75;;;5.55;;
75885;SDS011;64561;44.018;10.144;2024-01-11T10:16:41;10.55;;;5.47;;
75885;SDS011;64561;44.018;10.144;2024-01-11T10:19:10;10.40;;;5.38;;
75885;SDS011;64561;44.018;10.144;2024-01-11T10:21:40;7.22;;;4.30;;
75885;SDS011;64561;44.018;10.144;2024-01-11T10:24:09;6.63;;;3.72;;
75885;SDS011;64561;44.018;10.144;2024-01-11T10:26:37;8.18;;;4.15;;
75885;SDS011;64561;44.018;10.144;2024-01-11T10:29:05;7.00;;;4.38;;
75885;SDS011;64561;44.018;10.144;2024-01-11T10:31:39;7.32;;;4.68;;
75885;SDS011;64561;44.018;10.144;2024-01-11T10:34:07;7.90;;;4.70;;
75885;SDS011;64561;44.018;10.144;2024-01-11T10:36:35;7.38;;;4.75;;
75885;SDS011;64561;44.018;10.144;2024-01-11T10:39:03;8.80;;;5.68;;
75885;SDS011;64561;44.018;10.144;2024-01-11T10:44:19;8.85;;;5.47;;
75885;SDS011;64561;44.018;10.144;2024-01-11T10:46:50;8.82;;;4.80;;
75885;SDS011;64561;44.018;10.144;2024-01-11T10:49:23;9.88;;;5.55;;
75885;SDS011;64561;44.018;10.144;2024-01-11T10:51:53;8.63;;;5.13;;
75885;SDS011;64561;44.018;10.144;2024-01-11T10:54:24;8.93;;;5.10;;
75885;SDS011;64561;44.018;10.144;2024-01-11T10:56:53;8.07;;;4.75;;
75885;SDS011;64561;44.018;10.144;2024-01-11T10:59:22;8.07;;;5.40;;
75885;SDS011;64561;44.018;10.144;2024-01-11T11:01:55;9.43;;;5.45;;
75885;SDS011;64561;44.018;10.144;2024-01-11T11:04:25;10.10;;;5.63;;
75885;SDS011;64561;44.018;10.144;2024-01-11T11:06:54;11.02;;;6.22;;
75885;SDS011;64561;44.018;10.144;2024-01-11T11:09:25;9.80;;;5.22;;
75885;SDS011;64561;44.018;10.144;2024-01-11T11:11:56;13.95;;;5.68;;
75885;SDS011;64561;44.018;10.144;2024-01-11T11:14:25;9.45;;;5.97;;
75885;SDS011;64561;44.018;10.144;2024-01-11T11:16:52;10.40;;;6.03;;
75885;SDS011;64561;44.018;10.144;2024-01-11T11:19:20;9.75;;;6.00;;
75885;SDS011;64561;44.018;10.144;2024-01-11T11:22:06;11.73;;;5.80;;
75885;SDS011;64561;44.018;10.144;2024-01-11T11:24:36;9.60;;;5.80;;
75885;SDS011;64561;44.018;10.144;2024-01-11T11:27:03;8.32;;;5.28;;
75885;SDS011;64561;44.018;10.144;2024-01-11T11:29:32;12.02;;;5.72;;
75885;SDS011;64561;44.018;10.144;2024-01-11T11:31:59;8.63;;;4.82;;
75885;SDS011;64561;44.018;10.144;2024-01-11T11:37:11;10.13;;;5.18;;
75885;SDS011;64561;44.018;10.144;2024-01-11T11:39:39;9.32;;;5.82;;
75885;SDS011;64561;44.018;10.144;2024-01-11T11:42:10;11.20;;;6.28;;
75885;SDS011;64561;44.018;10.144;2024-01-11T11:44:47;10.43;;;6.05;;
75885;SDS011;64561;44.018;10.144;2024-01-11T11:47:20;9.50;;;5.38;;
75885;SDS011;64561;44.018;10.144;2024-01-11T11:50:03;10.48;;;5.82;;
75885;SDS011;64561;44.018;10.144;2024-01-11T11:52:38;9.70;;;5.45;;
75885;SDS011;64561;44.018;10.144;2024-01-11T11:55:06;11.18;;;6.35;;
75885;SDS011;64561;44.018;10.144;2024-01-11T11:57:35;9.02;;;4.90;;
75885;SDS011;64561;44.018;10.144;2024-01-11T12:00:03;9.82;;;6.38;;
75885;SDS011;64561;44.018;10.144;2024-01-11T12:02:37;10.02;;;5.45;;
75885;SDS011;64561;44.018;10.144;2024-01-11T12:05:06;9.40;;;5.72;;
75885;SDS011;64561;44.018;10.144;2024-01-11T12:07:33;9.13;;;5.15;;
75885;SDS011;64561;44.018;10.144;2024-01-11T12:10:01;9.13;;;5.70;;
75885;SDS011;64561;44.018;10.144;2024-01-11T12:12:30;10.98;;;5.70;;
75885;SDS011;64561;44.018;10.144;2024-01-11T12:14:58;8.15;;;5.35;;
75885;SDS011;64561;44.018;10.144;2024-01-11T12:17:26;10.43;;;6.57;;
75885;SDS011;64561;44.018;10.144;2024-01-11T12:19:54;9.60;;;6.03;;
75885;SDS011;64561;44.018;10.144;2024-01-11T12:22:23;9.18;;;6.35;;
75885;SDS011;64561;44.018;10.144;2024-01-11T12:24:51;10.88;;;5.70;;
75885;SDS011;64561;44.018;10.144;2024-01-11T12:27:18;8.23;;;6.30;;
75885;SDS011;64561;44.018;10.144;2024-01-11T12:29:47;8.85;;;6.03;;
75885;SDS011;64561;44.018;10.144;2024-01-11T12:32:24;8.77;;;5.47;;
75885;SDS011;64561;44.018;10.144;2024-01-11T12:34:52;9.98;;;5.80;;
75885;SDS011;64561;44.018;10.144;2024-01-11T12:37:20;11.05;;;5.93;;
75885;SDS011;64561;44.018;10.144;2024-01-11T12:39:48;9.25;;;5.53;;
75885;SDS011;64561;44.018;10.144;2024-01-11T12:42:16;7.35;;;4.93;;
75885;SDS011;64561;44.018;10.144;2024-01-11T12:44:44;9.60;;;5.35;;
75885;SDS011;64561;44.018;10.144;2024-01-11T12:47:13;8.20;;;5.10;;
75885;SDS011;64561;44.018;10.144;2024-01-11T12:49:43;9.95;;;6.00;;
75885;SDS011;64561;44.018;10.144;2024-01-11T12:52:19;8.90;;;4.82;;
75885;SDS011;64561;44.018;10.144;2024-01-11T12:54:46;12.70;;;8.20;;
75885;SDS011;64561;44.018;10.144;2024-01-11T12:57:20;9.02;;;6.75;;
75885;SDS011;64561;44.018;10.144;2024-01-11T12:59:48;8.02;;;4.68;;
75885;SDS011;64561;44.018;10.144;2024-01-11T13:02:16;7.75;;;5.13;;
75885;SDS011;64561;44.018;10.144;2024-01-11T13:04:46;15.68;;;7.15;;
75885;SDS011;64561;44.018;10.144;2024-01-11T13:07:13;11.85;;;6.32;;
75885;SDS011;64561;44.018;10.144;2024-01-11T13:09:43;9.23;;;5.97;;
75885;SDS011;64561;44.018;10.144;2024-01-11T13:12:10;11.25;;;6.75;;
75885;SDS011;64561;44.018;10.144;2024-01-11T13:14:37;11.57;;;6.93;;
75885;SDS011;64561;44.018;10.144;2024-01-11T13:17:06;12.30;;;7.75;;
75885;SDS011;64561;44.018;10.144;2024-01-11T13:19:35;9.98;;;5.97;;
75885;SDS011;64561;44.018;10.144;2024-01-11T13:22:02;8.82;;;5.55;;
75885;SDS011;64561;44.018;10.144;2024-01-11T13:24:30;12.73;;;6.78;;
75885;SDS011;64561;44.018;10.144;2024-01-11T13:26:57;13.38;;;7.22;;
75885;SDS011;64561;44.018;10.144;2024-01-11T13:29:25;16.23;;;8.43;;
75885;SDS011;64561;44.018;10.144;2024-01-11T13:31:53;11.57;;;6.80;;
75885;SDS011;64561;44.018;10.144;2024-01-11T13:34:20;12.80;;;7.13;;
75885;SDS011;64561;44.018;10.144;2024-01-11T13:36:47;12.35;;;6.55;;
75885;SDS011;64561;44.018;10.144;2024-01-11T13:39:15;13.15;;;6.15;;
75885;SDS011;64561;44.018;10.144;2024-01-11T13:41:45;12.35;;;6.22;;
75885;SDS011;64561;44.018;10.144;2024-01-11T13:44:12;8.20;;;5.40;;
75885;SDS011;64561;44.018;10.144;2024-01-11T13:46:39;9.20;;;5.22;;
75885;SDS011;64561;44.018;10.144;2024-01-11T13:49:06;8.13;;;4.88;;
75885;SDS011;64561;44.018;10.144;2024-01-11T13:51:34;8.27;;;5.55;;
75885;SDS011;64561;44.018;10.144;2024-01-11T13:54:19;6.10;;;4.38;;
75885;SDS011;64561;44.018;10.144;2024-01-11T13:56:49;7.43;;;4.88;;
75885;SDS011;64561;44.018;10.144;2024-01-11T13:59:19;9.07;;;5.50;;
75885;SDS011;64561;44.018;10.144;2024-01-11T14:01:47;10.05;;;5.15;;
75885;SDS011;64561;44.018;10.144;2024-01-11T14:04:14;7.50;;;4.57;;
75885;SDS011;64561;44.018;10.144;2024-01-11T14:06:41;10.65;;;5.78;;
75885;SDS011;64561;44.018;10.144;2024-01-11T14:09:10;7.28;;;4.88;;
75885;SDS011;64561;44.018;10.144;2024-01-11T14:11:39;6.65;;;4.53;;
75885;SDS011;64561;44.018;10.144;2024-01-11T14:14:06;8.82;;;4.68;;
75885;SDS011;64561;44.018;10.144;2024-01-11T14:16:33;8.77;;;5.07;;
75885;SDS011;64561;44.018;10.144;2024-01-11T14:19:00;6.63;;;4.60;;
75885;SDS011;64561;44.018;10.144;2024-01-11T14:21:28;7.03;;;4.32;;
75885;SDS011;64561;44.018;10.144;2024-01-11T14:23:55;7.28;;;4.45;;
75885;SDS011;64561;44.018;10.144;2024-01-11T14:26:23;8.95;;;4.72;;
75885;SDS011;64561;44.018;10.144;2024-01-11T14:28:50;9.68;;;5.72;;
75885;SDS011;64561;44.018;10.144;2024-01-11T14:31:18;7.88;;;4.20;;
75885;SDS011;64561;44.018;10.144;2024-01-11T14:33:45;7.80;;;4.72;;
75885;SDS011;64561;44.018;10.144;2024-01-11T14:36:13;8.82;;;5.47;;
75885;SDS011;64561;44.018;10.144;2024-01-11T14:38:42;10.23;;;6.18;;
75885;SDS011;64561;44.018;10.144;2024-01-11T14:41:09;8.95;;;5.50;;
75885;SDS011;64561;44.018;10.144;2024-01-11T14:43:36;10.48;;;5.65;;
75885;SDS011;64561;44.018;10.144;2024-01-11T14:46:04;8.70;;;5.50;;
75885;SDS011;64561;44.018;10.144;2024-01-11T14:48:32;10.00;;;5.75;;
75885;SDS011;64561;44.018;10.144;2024-01-11T14:50:59;9.85;;;5.82;;
75885;SDS011;64561;44.018;10.144;2024-01-11T14:53:27;6.60;;;4.75;;
75885;SDS011;64561;44.018;10.144;2024-01-11T14:55:54;7.35;;;4.88;;
75885;SDS011;64561;44.018;10.144;2024-01-11T14:58:21;7.60;;;4.88;;
75885;SDS011;64561;44.018;10.144;2024-01-11T15:00:48;8.52;;;5.15;;
75885;SDS011;64561;44.018;10.144;2024-01-11T15:03:15;8.07;;;5.10;;
75885;SDS011;64561;44.018;10.144;2024-01-11T15:05:45;7.90;;;4.97;;
75885;SDS011;64561;44.018;10.144;2024-01-11T15:08:12;7.88;;;5.10;;
75885;SDS011;64561;44.018;10.144;2024-01-11T15:10:39;10.38;;;5.20;;
75885;SDS011;64561;44.018;10.144;2024-01-11T15:13:09;7.43;;;5.05;;
75885;SDS011;64561;44.018;10.144;2024-01-11T15:15:36;8.38;;;4.53;;
75885;SDS011;64561;44.018;10.144;2024-01-11T15:18:06;7.93;;;4.97;;
75885;SDS011;64561;44.018;10.144;2024-01-11T15:20:33;6.88;;;4.68;;
75885;SDS011;64561;44.018;10.144;2024-01-11T15:23:00;7.10;;;4.68;;
75885;SDS011;64561;44.018;10.144;2024-01-11T15:25:30;6.28;;;4.28;;
75885;SDS011;64561;44.018;10.144;2024-01-11T15:27:58;7.55;;;4.63;;
75885;SDS011;64561;44.018;10.144;2024-01-11T15:30:25;6.35;;;3.90;;
75885;SDS011;64561;44.018;10.144;2024-01-11T15:32:53;11.43;;;6.00;;
75885;SDS011;64561;44.018;10.144;2024-01-11T15:35:25;11.07;;;6.32;;
75885;SDS011;64561;44.018;10.144;2024-01-11T15:37:52;11.50;;;7.45;;
75885;SDS011;64561;44.018;10.144;2024-01-11T15:40:20;16.23;;;8.85;;
75885;SDS011;64561;44.018;10.144;2024-01-11T15:42:50;17.42;;;10.05;;
75885;SDS011;64561;44.018;10.144;2024-01-11T15:45:17;15.57;;;9.88;;
75885;SDS011;64561;44.018;10.144;2024-01-11T15:47:44;14.63;;;9.02;;
75885;SDS011;64561;44.018;10.144;2024-01-11T15:50:12;13.27;;;8.45;;
75885;SDS011;64561;44.018;10.144;2024-01-11T15:52:39;14.02;;;7.68;;
75885;SDS011;64561;44.018;10.144;2024-01-11T15:55:06;11.98;;;8.20;;
75885;SDS011;64561;44.018;10.144;2024-01-11T15:57:36;12.10;;;7.53;;
75885;SDS011;64561;44.018;10.144;2024-01-11T16:00:04;11.38;;;7.55;;
75885;SDS011;64561;44.018;10.144;2024-01-11T16:02:38;14.57;;;7.90;;
75885;SDS011;64561;44.018;10.144;2024-01-11T16:05:08;17.42;;;9.75;;
75885;SDS011;64561;44.018;10.144;2024-01-11T16:07:39;15.52;;;10.73;;
75885;SDS011;64561;44.018;10.144;2024-01-11T16:10:06;17.55;;;10.85;;
75885;SDS011;64561;44.018;10.144;2024-01-11T16:12:34;17.63;;;10.70;;
75885;SDS011;64561;44.018;10.144;2024-01-11T16:15:01;16.33;;;9.50;;
75885;SDS011;64561;44.018;10.144;2024-01-11T16:17:31;14.43;;;9.20;;
75885;SDS011;64561;44.018;10.144;2024-01-11T16:20:00;14.30;;;8.70;;
75885;SDS011;64561;44.018;10.144;2024-01-11T16:22:30;12.98;;;8.30;;
75885;SDS011;64561;44.018;10.144;2024-01-11T16:40:11;16.95;;;9.52;;
75885;SDS011;64561;44.018;10.144;2024-01-11T16:44:19;17.52;;;12.73;;
75885;SDS011;64561;44.018;10.144;2024-01-11T16:55:04;26.58;;;15.57;;
75885;SDS011;64561;44.018;10.144;2024-01-11T16:57:31;19.33;;;13.30;;
75885;SDS011;64561;44.018;10.144;2024-01-11T16:59:59;22.48;;;15.18;;
75885;SDS011;64561;44.018;10.144;2024-01-11T17:02:29;22.42;;;15.27;;
75885;SDS011;64561;44.018;10.144;2024-01-11T17:04:57;36.03;;;22.42;;
75885;SDS011;64561;44.018;10.144;2024-01-11T17:07:24;38.85;;;23.58;;
75885;SDS011;64561;44.018;10.144;2024-01-11T17:09:51;37.33;;;22.23;;
75885;SDS011;64561;44.018;10.144;2024-01-11T17:12:19;34.17;;;20.30;;
75885;SDS011;64561;44.018;10.144;2024-01-11T17:14:47;23.92;;;17.35;;
75885;SDS011;64561;44.018;10.144;2024-01-11T17:17:14;25.63;;;16.33;;
75885;SDS011;64561;44.018;10.144;2024-01-11T17:19:42;20.77;;;15.80;;
75885;SDS011;64561;44.018;10.144;2024-01-11T17:22:09;20.00;;;13.02;;
75885;SDS011;64561;44.018;10.144;2024-01-11T17:24:36;28.27;;;19.35;;
75885;SDS011;64561;44.018;10.144;2024-01-11T17:27:03;15.75;;;10.80;;
75885;SDS011;64561;44.018;10.144;2024-01-11T17:29:35;17.42;;;11.70;;
75885;SDS011;64561;44.018;10.144;2024-01-11T17:32:04;12.60;;;8.02;;
75885;SDS011;64561;44.018;10.144;2024-01-11T17:34:31;15.30;;;8.60;;